Time;durP1;ratioP1;P1;durP2;ratioP2;P2;SDS_P1;SDS_P2;PMS_P1;PMS_P2;Temp;Humidity;BMP_temperature;BMP_pressure;BME280_temperature;BME280_humidity;BME280_pressure;Samples;Min_cycle;Max_cycle;Signal;HPM_P1;HPM_P2
2023/04/08 00:00:05;;;;;;;13.48;4.20;;;;;;;5.75;34.58;100933.53;5035906;28;20102;-56
2023/04/08 00:02:31;;;;;;;11.77;4.50;;;;;;;5.73;34.36;100932.75;5035627;28;20134;-59
2023/04/08 00:04:56;;;;;;;9.93;4.97;;;;;;;5.79;34.45;100939.59;5035444;28;20113;-59
2023/04/08 00:07:22;;;;;;;8.95;4.82;;;;;;;5.77;34.45;100937.00;5032030;28;20029;-59
2023/04/08 00:09:47;;;;;;;12.05;4.50;;;;;;;5.69;34.43;100929.38;5016026;28;20120;-60
2023/04/08 00:12:12;;;;;;;10.93;5.03;;;;;;;5.55;35.11;100927.31;5015563;28;20038;-59
2023/04/08 00:14:40;;;;;;;9.52;4.70;;;;;;;5.61;35.20;100936.78;5016071;28;20353;-57
2023/04/08 00:17:06;;;;;;;9.32;4.50;;;;;;;5.41;34.91;100908.41;5030479;28;20433;-61
2023/04/08 00:19:32;;;;;;;8.90;4.40;;;;;;;5.58;35.40;100932.50;5035167;28;20055;-61
2023/04/08 00:21:58;;;;;;;9.15;4.50;;;;;;;5.52;35.33;100942.50;5035603;28;20368;-59
2023/04/08 00:24:24;;;;;;;11.27;4.63;;;;;;;5.49;35.54;100934.66;5035687;28;20029;-58
2023/04/08 00:26:49;;;;;;;12.43;4.30;;;;;;;5.45;35.86;100933.91;5035321;28;20329;-59
2023/04/08 00:29:15;;;;;;;8.85;4.53;;;;;;;5.52;35.29;100938.03;5035445;28;20033;-58
2023/04/08 00:31:40;;;;;;;10.38;4.03;;;;;;;5.39;35.99;100920.91;5035407;28;20034;-62
2023/04/08 00:34:06;;;;;;;9.00;4.18;;;;;;;5.38;36.30;100935.09;5035484;28;20112;-62
2023/04/08 00:36:31;;;;;;;7.22;4.28;;;;;;;5.42;35.79;100937.56;5023759;28;20022;-57
2023/04/08 00:38:57;;;;;;;10.20;4.72;;;;;;;5.38;36.31;100932.44;5015710;28;20437;-57
2023/04/08 00:41:22;;;;;;;11.85;4.60;;;;;;;5.35;36.09;100929.91;5015407;28;20434;-60
2023/04/08 00:43:48;;;;;;;10.52;4.82;;;;;;;5.31;36.73;100935.38;5015215;28;20511;-60
2023/04/08 00:46:13;;;;;;;10.93;4.68;;;;;;;5.49;36.67;100939.97;5015484;28;20026;-59
2023/04/08 00:48:39;;;;;;;10.57;4.80;;;;;;;5.16;36.42;100896.16;5016354;28;20022;-60
2023/04/08 00:51:05;;;;;;;13.13;5.45;;;;;;;5.21;36.78;100934.00;5014112;28;20050;-56
2023/04/08 00:53:31;;;;;;;12.48;5.03;;;;;;;5.28;36.61;100939.94;5015781;28;20137;-58
2023/04/08 00:55:58;;;;;;;12.48;4.85;;;;;;;5.19;36.92;100937.66;5020757;28;20100;-58
2023/04/08 00:58:24;;;;;;;12.15;4.90;;;;;;;5.04;37.39;100924.06;5035090;28;20048;-54
2023/04/08 01:00:57;;;;;;;13.43;5.30;;;;;;;5.24;37.11;100938.31;5034851;28;20349;-58
2023/04/08 01:03:48;;;;;;;12.20;4.47;;;;;;;5.25;37.18;100935.59;5032783;28;20123;-62
2023/04/08 01:06:34;;;;;;;7.45;4.40;;;;;;;5.22;37.36;100934.88;5034136;28;20091;-60
2023/04/08 01:09:04;;;;;;;6.90;4.35;;;;;;;4.94;37.34;100904.97;5034071;28;20400;-63
2023/04/08 01:11:33;;;;;;;10.15;4.57;;;;;;;5.14;37.58;100929.88;5034264;28;20155;-61
2023/04/08 01:14:05;;;;;;;10.70;5.07;;;;;;;5.12;37.42;100939.69;5034221;28;20111;-60
2023/04/08 01:16:31;;;;;;;14.50;5.10;;;;;;;5.17;37.89;100937.69;5024314;28;20045;-61
2023/04/08 01:18:57;;;;;;;10.50;4.47;;;;;;;5.14;37.48;100938.69;5014782;28;20030;-63
2023/04/08 01:21:24;;;;;;;9.75;4.53;;;;;;;5.04;38.21;100932.03;5014245;28;20030;-60
2023/04/08 01:24:07;;;;;;;9.30;4.45;;;;;;;5.06;37.51;100939.91;5014619;28;20030;-59
2023/04/08 01:26:34;;;;;;;9.00;4.35;;;;;;;4.92;38.23;100927.19;5014873;28;20052;-57
2023/04/08 01:29:02;;;;;;;9.73;4.32;;;;;;;4.87;38.73;100940.66;5013889;28;20045;-58
2023/04/08 01:31:29;;;;;;;10.57;4.28;;;;;;;4.74;38.68;100925.19;5025611;28;20428;-58
2023/04/08 01:33:56;;;;;;;11.25;4.65;;;;;;;4.72;38.69;100932.34;5034291;28;20073;-59
2023/04/08 01:36:25;;;;;;;8.43;4.72;;;;;;;4.76;39.01;100932.22;5025576;28;20033;-57
2023/04/08 01:38:50;;;;;;;10.45;4.85;;;;;;;4.77;38.76;100939.25;5014400;28;20099;-59
2023/04/08 01:41:17;;;;;;;8.80;4.93;;;;;;;4.71;39.36;100937.72;5014422;28;20046;-58
2023/04/08 01:43:43;;;;;;;10.55;4.63;;;;;;;4.74;38.92;100919.88;5014774;28;20040;-57
2023/04/08 01:46:11;;;;;;;8.77;4.68;;;;;;;4.81;39.24;100941.75;5014752;28;20079;-61
2023/04/08 01:48:38;;;;;;;11.05;4.40;;;;;;;4.85;38.78;100942.50;5012924;28;20089;-59
2023/04/08 01:51:05;;;;;;;8.10;4.10;;;;;;;4.75;38.63;100947.28;5013885;28;20145;-61
2023/04/08 01:53:32;;;;;;;14.05;4.30;;;;;;;4.67;38.82;100938.75;5013969;28;20052;-58
2023/04/08 01:56:04;;;;;;;9.63;4.57;;;;;;;4.62;39.44;100938.06;5019289;28;20389;-57
2023/04/08 01:58:37;;;;;;;10.05;4.68;;;;;;;4.56;39.29;100937.38;5028865;28;20041;-58
2023/04/08 02:01:09;;;;;;;13.48;4.63;;;;;;;4.68;39.34;100941.34;5012889;28;20041;-61
2023/04/08 02:03:35;;;;;;;9.27;4.80;;;;;;;4.69;38.93;100943.09;5014035;28;20062;-62
2023/04/08 02:06:01;;;;;;;9.65;4.78;;;;;;;4.39;39.80;100908.84;5013755;28;20146;-58
2023/04/08 02:08:26;;;;;;;9.43;5.20;;;;;;;4.58;39.58;100937.31;5013661;28;20427;-60
2023/04/08 02:10:52;;;;;;;12.05;4.80;;;;;;;4.51;39.80;100938.47;5014113;28;20034;-62
2023/04/08 02:13:17;;;;;;;11.27;5.18;;;;;;;4.50;39.73;100928.78;5016836;28;20021;-60
2023/04/08 02:15:55;;;;;;;14.35;5.60;;;;;;;4.53;39.61;100932.19;5033051;28;20041;-61
2023/04/08 02:18:26;;;;;;;10.15;5.32;;;;;;;4.70;39.55;100939.50;5031859;28;20038;-57
2023/04/08 02:21:10;;;;;;;17.52;5.13;;;;;;;4.50;39.82;100940.25;5015834;28;20060;-55
2023/04/08 02:23:38;;;;;;;14.55;4.90;;;;;;;4.58;40.00;100932.00;5033113;28;20116;-60
2023/04/08 02:26:11;;;;;;;13.18;5.22;;;;;;;4.52;39.49;100932.22;5033701;28;20030;-60
2023/04/08 02:28:40;;;;;;;17.65;5.95;;;;;;;4.44;39.99;100932.50;5033193;28;20116;-60
2023/04/08 02:31:09;;;;;;;11.88;4.95;;;;;;;4.27;40.70;100946.41;5022787;28;20061;-61
2023/04/08 02:33:36;;;;;;;15.60;5.47;;;;;;;4.14;40.36;100946.84;5013198;28;20042;-57
2023/04/08 02:36:02;;;;;;;14.82;5.50;;;;;;;4.09;41.13;100948.78;5013530;28;20038;-61
2023/04/08 02:38:29;;;;;;;12.20;4.97;;;;;;;3.92;40.68;100907.00;5016275;28;20113;-58
2023/04/08 02:40:55;;;;;;;11.52;5.00;;;;;;;4.10;41.15;100949.66;5032086;28;20038;-59
2023/04/08 02:43:20;;;;;;;14.25;4.88;;;;;;;4.10;41.46;100949.66;5033430;28;20360;-57
2023/04/08 02:45:46;;;;;;;15.15;4.93;;;;;;;4.07;41.34;100957.72;5033066;28;20091;-58
2023/04/08 02:48:11;;;;;;;10.73;4.72;;;;;;;4.01;41.20;100954.38;5032750;28;20476;-53
2023/04/08 02:50:38;;;;;;;11.23;5.15;;;;;;;4.00;41.56;100955.31;5031845;28;20031;-61
2023/04/08 02:53:04;;;;;;;11.57;5.13;;;;;;;4.09;40.85;100959.38;5029991;28;20449;-58
2023/04/08 02:55:30;;;;;;;15.70;5.03;;;;;;;4.10;41.05;100949.66;5011350;28;20049;-57
2023/04/08 02:57:55;;;;;;;11.43;5.18;;;;;;;4.15;41.13;100953.88;5011934;28;20026;-57
2023/04/08 03:00:20;;;;;;;14.23;5.63;;;;;;;4.21;40.77;100951.94;5031434;28;20449;-57
2023/04/08 03:02:46;;;;;;;10.75;5.78;;;;;;;4.16;40.96;100950.31;5032684;28;20125;-57
2023/04/08 03:05:11;;;;;;;14.43;5.47;;;;;;;4.22;40.87;100953.66;5031827;28;20376;-57
2023/04/08 03:07:37;;;;;;;14.23;5.47;;;;;;;4.18;41.43;100952.03;5031718;28;20029;-55
2023/04/08 03:10:03;;;;;;;16.17;5.45;;;;;;;4.26;40.83;100960.56;5031999;28;20038;-60
2023/04/08 03:12:30;;;;;;;16.88;5.63;;;;;;;4.30;41.15;100955.13;5032260;28;20037;-65
2023/04/08 03:14:55;;;;;;;16.33;5.32;;;;;;;4.30;41.33;100959.53;5030517;28;20494;-57
2023/04/08 03:17:21;;;;;;;20.20;5.53;;;;;;;4.39;41.09;100940.66;5031426;28;20037;-59
2023/04/08 03:19:46;;;;;;;17.50;5.55;;;;;;;4.49;40.92;100958.88;5016846;28;20026;-60
2023/04/08 03:22:12;;;;;;;13.68;5.68;;;;;;;4.56;40.46;100961.25;5011877;28;20433;-59
2023/04/08 03:24:38;;;;;;;16.33;5.82;;;;;;;4.56;40.68;100965.66;5011724;28;20053;-62
2023/04/08 03:27:04;;;;;;;15.85;5.40;;;;;;;4.49;41.11;100961.53;5010161;28;20105;-56
2023/04/08 03:29:29;;;;;;;21.40;6.20;;;;;;;5.01;40.33;100964.00;5011804;28;20038;-58
2023/04/08 03:31:55;;;;;;;13.10;5.97;;;;;;;5.74;38.46;100966.38;5031618;28;20052;-57
2023/04/08 03:34:20;;;;;;;22.35;5.43;;;;;;;6.33;37.27;100969.22;5031626;28;20021;-64
2023/04/08 03:36:45;;;;;;;14.95;5.90;;;;;;;6.84;36.47;100963.38;5031580;28;20025;-61
2023/04/08 03:39:11;;;;;;;16.55;5.47;;;;;;;7.56;35.25;100947.50;5020960;28;20061;-57
2023/04/08 03:41:36;;;;;;;12.32;5.70;;;;;;;8.57;32.98;100961.03;5012187;28;20120;-58
2023/04/08 03:44:03;;;;;;;17.30;5.88;;;;;;;9.61;31.18;100956.09;5011415;28;20441;-61
2023/04/08 03:46:28;;;;;;;18.58;6.00;;;;;;;10.23;30.08;100950.72;5010528;28;20037;-59
2023/04/08 03:48:54;;;;;;;17.30;6.55;;;;;;;11.09;29.03;100940.91;5011390;28;20037;-57
2023/04/08 03:51:20;;;;;;;10.98;5.63;;;;;;;11.99;27.53;100951.94;4969965;28;1209094;-57
2023/04/08 03:53:47;;;;;;;14.38;5.82;;;;;;;12.73;26.66;100953.13;5012390;28;20045;-56
2023/04/08 03:56:12;;;;;;;20.27;6.43;;;;;;;13.48;25.46;100952.16;5012318;28;20037;-56
2023/04/08 03:58:38;;;;;;;13.77;6.18;;;;;;;14.04;24.71;100953.31;5017408;28;20025;-60
2023/04/08 04:01:03;;;;;;;18.02;6.82;;;;;;;14.59;24.13;100959.91;5032235;28;20037;-59
2023/04/08 04:03:29;;;;;;;14.07;6.70;;;;;;;14.97;23.34;100955.13;5031881;28;20112;-61
2023/04/08 04:05:54;;;;;;;9.90;5.63;;;;;;;15.19;22.97;100960.47;5032126;28;20612;-59
2023/04/08 04:08:20;;;;;;;12.15;5.72;;;;;;;15.90;22.10;100956.44;5032170;28;20051;-60
2023/04/08 04:10:45;;;;;;;14.93;6.25;;;;;;;16.75;21.18;100964.44;5031812;28;20026;-58
2023/04/08 04:13:10;;;;;;;11.90;5.90;;;;;;;17.15;20.67;100960.03;5031632;28;20346;-57
2023/04/08 04:15:40;;;;;;;11.18;6.07;;;;;;;17.62;20.41;100964.81;5031912;28;20061;-59
2023/04/08 04:18:06;;;;;;;10.40;5.80;;;;;;;18.16;19.69;100974.34;5030267;28;20091;-59
2023/04/08 04:20:31;;;;;;;18.05;6.63;;;;;;;18.28;19.04;100969.59;5012184;28;20030;-55
2023/04/08 04:22:57;;;;;;;16.20;6.78;;;;;;;18.39;18.85;100969.47;5012281;28;20041;-60
2023/04/08 04:25:22;;;;;;;10.27;5.88;;;;;;;19.00;18.70;100969.94;5011789;28;20034;-64
2023/04/08 04:27:48;;;;;;;16.63;6.93;;;;;;;19.87;17.58;100958.59;5012018;28;20076;-62
2023/04/08 04:30:14;;;;;;;9.60;5.88;;;;;;;20.60;17.05;100951.09;5012612;28;20360;-61
2023/04/08 04:32:41;;;;;;;12.48;6.65;;;;;;;21.33;16.38;100959.75;5011776;28;20025;-63
2023/04/08 04:35:08;;;;;;;11.50;6.65;;;;;;;21.89;15.97;100958.31;5011761;28;20103;-62
2023/04/08 04:37:34;;;;;;;9.98;6.53;;;;;;;21.97;15.42;100966.47;5012161;28;20548;-63
2023/04/08 04:39:59;;;;;;;15.68;6.88;;;;;;;22.13;15.50;100960.13;5030763;28;20110;-62
2023/04/08 04:42:25;;;;;;;18.08;6.90;;;;;;;22.59;14.81;100961.44;5041808;28;20069;-62
2023/04/08 04:44:50;;;;;;;10.10;6.47;;;;;;;23.33;14.34;100954.81;5041787;28;20021;-62
2023/04/08 04:47:16;;;;;;;13.68;6.43;;;;;;;23.99;13.80;100962.50;5052127;28;20036;-61
2023/04/08 04:49:41;;;;;;;15.90;6.55;;;;;;;24.58;13.24;100966.38;5041679;28;20118;-64
2023/04/08 04:52:07;;;;;;;14.90;7.30;;;;;;;24.85;13.02;100965.94;5054421;28;20132;-61
2023/04/08 04:54:32;;;;;;;13.70;6.40;;;;;;;24.92;13.18;100964.97;5051821;28;20041;-61
2023/04/08 04:56:58;;;;;;;13.90;6.60;;;;;;;25.21;12.28;100907.56;5044594;28;20096;-62
2023/04/08 04:59:23;;;;;;;16.52;6.20;;;;;;;26.05;12.36;100957.31;5043158;28;20047;-61
2023/04/08 05:01:49;;;;;;;13.32;5.90;;;;;;;26.82;11.57;100965.63;5042755;28;20108;-58
2023/04/08 05:04:14;;;;;;;14.82;6.70;;;;;;;27.26;11.45;100980.00;5043910;28;20056;-54
2023/04/08 05:06:40;;;;;;;14.50;7.18;;;;;;;27.56;11.15;100970.56;5038218;28;20044;-55
2023/04/08 05:09:05;;;;;;;14.02;6.97;;;;;;;27.94;10.70;100961.72;5035205;28;20041;-56
2023/04/08 05:11:31;;;;;;;11.55;6.65;;;;;;;27.60;10.55;100969.09;5034573;28;20148;-52
2023/04/08 05:13:56;;;;;;;10.32;6.50;;;;;;;27.89;10.81;100972.53;5034495;28;20036;-56
2023/04/08 05:16:22;;;;;;;14.68;7.30;;;;;;;28.07;10.75;100972.72;5035324;28;20025;-55
2023/04/08 05:18:47;;;;;;;19.08;7.80;;;;;;;28.58;10.53;100978.63;5034670;28;20033;-56
2023/04/08 05:21:12;;;;;;;12.20;7.05;;;;;;;28.91;10.26;100974.06;5026375;28;20438;-57
2023/04/08 05:23:38;;;;;;;15.35;7.07;;;;;;;29.53;9.84;100975.50;5014303;28;20116;-55
2023/04/08 05:26:07;;;;;;;13.27;7.35;;;;;;;30.19;9.30;100982.44;5015156;28;20076;-57
2023/04/08 05:28:32;;;;;;;15.38;7.18;;;;;;;30.54;9.04;100980.19;5027215;28;20487;-58
2023/04/08 05:30:58;;;;;;;15.65;6.93;;;;;;;31.00;8.85;100978.81;5034127;28;20069;-59
2023/04/08 05:33:25;;;;;;;16.75;6.32;;;;;;;31.77;8.26;100984.81;5038545;28;20116;-58
2023/04/08 05:35:51;;;;;;;14.00;6.15;;;;;;;32.33;7.78;100990.91;5043977;28;20056;-54
2023/04/08 05:38:17;;;;;;;12.07;6.10;;;;;;;32.50;7.82;100988.25;5042944;28;20021;-52
2023/04/08 05:40:42;;;;;;;18.35;6.15;;;;;;;32.90;7.74;100985.81;5041744;28;20053;-54
2023/04/08 05:43:08;;;;;;;11.95;5.95;;;;;;;32.55;7.72;100981.97;5040689;28;20025;-53
2023/04/08 05:45:33;;;;;;;14.20;6.00;;;;;;;31.99;7.99;100992.53;5042171;28;20025;-56
2023/04/08 05:47:59;;;;;;;11.75;5.80;;;;;;;32.68;7.49;100985.59;5041884;28;20029;-56
2023/04/08 05:50:24;;;;;;;16.27;6.20;;;;;;;33.50;7.40;100986.41;5042508;28;20037;-54
2023/04/08 05:52:50;;;;;;;11.82;5.47;;;;;;;34.20;7.04;100989.84;5041974;28;20364;-55
2023/04/08 05:55:15;;;;;;;11.02;5.82;;;;;;;34.61;6.53;100989.66;5042526;28;20087;-54
2023/04/08 05:57:41;;;;;;;13.48;6.43;;;;;;;34.89;6.54;100985.00;5041591;28;20041;-54
2023/04/08 06:00:08;;;;;;;13.88;5.97;;;;;;;35.35;6.47;100992.22;5043125;28;20031;-54
2023/04/08 06:02:35;;;;;;;12.05;6.00;;;;;;;35.96;5.78;100993.06;5038314;28;20040;-55
2023/04/08 06:05:02;;;;;;;16.38;6.13;;;;;;;36.27;5.68;100982.97;5042959;28;20091;-59
2023/04/08 06:07:29;;;;;;;14.13;6.13;;;;;;;36.29;6.06;100991.09;5035035;28;20360;-56
2023/04/08 06:09:55;;;;;;;11.95;5.55;;;;;;;36.86;5.54;100985.81;5043530;28;20064;-56
2023/04/08 06:12:20;;;;;;;16.25;6.10;;;;;;;37.44;5.35;100977.34;5053359;28;20413;-57
2023/04/08 06:14:46;;;;;;;18.30;6.28;;;;;;;38.02;5.28;100978.25;5053334;28;20029;-55
2023/04/08 06:17:12;;;;;;;10.52;5.35;;;;;;;38.43;5.16;100978.16;5053563;28;20033;-56
2023/04/08 06:19:37;;;;;;;14.73;6.43;;;;;;;39.08;4.48;100981.31;5052960;28;20410;-55
2023/04/08 06:22:02;;;;;;;15.30;6.15;;;;;;;39.69;4.71;100979.22;5026441;28;20037;-56
2023/04/08 06:24:28;;;;;;;12.80;6.50;;;;;;;40.02;4.18;100965.47;5013543;28;20572;-58
2023/04/08 06:26:54;;;;;;;16.20;5.93;;;;;;;39.80;4.12;100930.38;5013827;28;20033;-60
2023/04/08 06:29:22;;;;;;;21.23;6.85;;;;;;;40.68;4.04;100981.91;5013064;28;20103;-55
2023/04/08 06:31:51;;;;;;;16.58;5.82;;;;;;;40.63;4.22;100982.78;5013096;28;20034;-58
2023/04/08 06:34:16;;;;;;;17.95;6.38;;;;;;;40.66;3.97;100979.38;5013589;28;20065;-56
2023/04/08 06:36:42;;;;;;;15.00;5.97;;;;;;;40.78;3.63;100927.63;5013202;28;20128;-59
2023/04/08 06:39:08;;;;;;;13.13;5.90;;;;;;;41.54;3.44;100972.56;5013507;28;20080;-56
2023/04/08 06:41:33;;;;;;;12.50;6.88;;;;;;;41.68;3.76;100968.97;5013528;28;20030;-57
2023/04/08 06:43:59;;;;;;;13.70;6.47;;;;;;;41.97;3.58;100967.91;5012647;28;20402;-60
2023/04/08 06:46:25;;;;;;;17.20;5.82;;;;;;;42.13;3.31;100969.31;5025771;28;20270;-57
2023/04/08 06:48:50;;;;;;;12.93;6.20;;;;;;;42.30;3.19;100973.50;5032567;28;20087;-57
2023/04/08 06:51:16;;;;;;;11.02;5.90;;;;;;;42.41;2.97;100965.69;5032789;28;20049;-57
2023/04/08 06:53:41;;;;;;;16.48;6.45;;;;;;;42.62;3.21;100968.91;5033203;28;20037;-58
2023/04/08 06:56:07;;;;;;;22.33;6.60;;;;;;;42.38;2.76;100971.94;5032282;28;20116;-57
2023/04/08 06:58:32;;;;;;;17.35;6.78;;;;;;;41.74;3.59;100971.41;5032595;28;20395;-60
2023/04/08 07:01:02;;;;;;;11.95;6.10;;;;;;;42.03;3.58;100980.78;5032865;28;20104;-57
2023/04/08 07:03:27;;;;;;;14.77;6.80;;;;;;;41.80;3.47;100965.66;5033222;28;20112;-57
2023/04/08 07:05:53;;;;;;;16.05;6.25;;;;;;;41.75;3.12;100946.94;5032504;28;20120;-56
2023/04/08 07:08:18;;;;;;;21.00;6.68;;;;;;;41.96;3.28;100969.03;5032551;28;20106;-56
2023/04/08 07:10:44;;;;;;;14.40;5.82;;;;;;;42.36;3.05;100962.97;5028489;28;20038;-59
2023/04/08 07:13:09;;;;;;;18.35;6.45;;;;;;;42.88;2.91;100960.78;5013065;28;20029;-55
2023/04/08 07:15:35;;;;;;;13.45;6.75;;;;;;;42.91;2.74;100961.31;5012883;28;20104;-58
2023/04/08 07:18:01;;;;;;;14.48;6.82;;;;;;;42.36;3.13;100963.81;5012758;28;20095;-60
2023/04/08 07:20:27;;;;;;;16.77;6.78;;;;;;;42.08;3.19;100960.13;5013125;28;20041;-57
2023/04/08 07:22:52;;;;;;;17.63;7.10;;;;;;;41.89;3.19;100964.66;5013002;28;20441;-58
2023/04/08 07:25:18;;;;;;;20.58;6.78;;;;;;;42.18;3.25;100952.31;5012733;28;20037;-58
2023/04/08 07:27:43;;;;;;;18.02;6.93;;;;;;;42.62;2.93;100960.47;5012358;28;20030;-57
2023/04/08 07:30:09;;;;;;;15.15;7.30;;;;;;;42.74;3.04;100966.41;5012064;28;20072;-59
2023/04/08 07:32:35;;;;;;;13.93;6.68;;;;;;;42.72;2.84;100948.16;5012016;28;20121;-55
2023/04/08 07:35:01;;;;;;;19.73;6.78;;;;;;;42.24;3.04;100958.69;5018581;28;20060;-56
2023/04/08 07:37:28;;;;;;;12.52;5.57;;;;;;;42.00;3.27;100947.59;5032278;28;20040;-57
2023/04/08 07:39:54;;;;;;;13.25;5.28;;;;;;;42.03;3.37;100952.63;5031578;28;20038;-55
2023/04/08 07:42:20;;;;;;;11.32;5.72;;;;;;;41.39;3.45;100950.31;5032121;28;20045;-58
2023/04/08 07:44:46;;;;;;;13.68;5.65;;;;;;;40.42;3.78;100952.16;5031790;28;20036;-58
2023/04/08 07:47:12;;;;;;;13.35;5.70;;;;;;;39.73;4.19;100957.88;5032120;28;20029;-57
2023/04/08 07:49:38;;;;;;;10.55;4.95;;;;;;;39.22;3.98;100945.91;5032116;28;20116;-60
2023/04/08 07:52:04;;;;;;;10.60;7.00;;;;;;;38.05;4.67;100955.31;5031888;28;20188;-60
2023/04/08 07:54:32;;;;;;;16.98;6.25;;;;;;;35.67;5.71;100954.38;5032260;28;20034;-54
2023/04/08 07:56:58;;;;;;;18.55;6.68;;;;;;;33.86;6.64;100956.50;5032483;28;20113;-51
2023/04/08 07:59:24;;;;;;;17.80;5.97;;;;;;;33.27;6.98;100954.88;5031565;28;20084;-55
2023/04/08 08:01:49;;;;;;;14.05;5.82;;;;;;;32.08;7.46;100931.03;5013374;28;20116;-56
2023/04/08 08:04:15;;;;;;;7.85;5.43;;;;;;;31.63;7.73;100954.56;5012636;28;20441;-56
2023/04/08 08:06:40;;;;;;;14.05;5.35;;;;;;;30.63;8.47;100946.50;5011215;28;20041;-57
2023/04/08 08:09:06;;;;;;;4.18;3.47;;;;;;;28.84;9.29;100953.97;5012283;28;20038;-54
2023/04/08 08:11:31;;;;;;;11.60;4.05;;;;;;;26.82;10.87;100954.63;5012894;28;20037;-58
2023/04/08 08:13:57;;;;;;;8.07;4.10;;;;;;;24.73;11.82;100929.94;5014251;28;20026;-58
2023/04/08 08:16:25;;;;;;;14.27;4.50;;;;;;;23.16;13.37;100956.78;5015826;28;20037;-56
2023/04/08 08:18:51;;;;;;;10.80;4.43;;;;;;;21.96;14.38;100945.69;5016119;28;20036;-58
2023/04/08 08:21:16;;;;;;;8.75;4.70;;;;;;;20.82;14.89;100945.28;5016020;28;20034;-57
2023/04/08 08:23:42;;;;;;;9.25;4.40;;;;;;;19.81;16.60;100948.38;5016509;28;20042;-58
2023/04/08 08:26:08;;;;;;;7.65;3.92;;;;;;;19.25;17.09;100953.09;5035222;28;20120;-57
2023/04/08 08:28:34;;;;;;;9.50;4.20;;;;;;;18.86;17.23;100959.56;5035635;28;20467;-63
2023/04/08 08:31:01;;;;;;;13.02;4.10;;;;;;;18.19;18.09;100963.22;5035488;28;20048;-56
2023/04/08 08:33:26;;;;;;;9.82;4.50;;;;;;;17.30;19.13;100951.53;5034754;28;20112;-52
2023/04/08 08:35:52;;;;;;;10.15;4.82;;;;;;;16.97;19.42;100950.84;5034960;28;20132;-54
2023/04/08 08:38:18;;;;;;;6.07;4.60;;;;;;;16.87;20.18;100954.38;5035347;28;20034;-52
2023/04/08 08:40:44;;;;;;;10.00;4.80;;;;;;;16.67;19.93;100933.69;5018976;28;20449;-57
2023/04/08 08:43:10;;;;;;;6.40;4.38;;;;;;;16.59;20.40;100947.88;5014902;28;20046;-54
2023/04/08 08:45:42;;;;;;;7.47;4.65;;;;;;;16.43;19.93;100946.53;5016743;28;20030;-61
2023/04/08 08:48:08;;;;;;;9.50;4.75;;;;;;;16.23;22.06;100945.56;5035410;28;20033;-54
2023/04/08 08:50:34;;;;;;;6.80;4.35;;;;;;;16.24;21.36;100951.81;5033672;28;20029;-57
2023/04/08 08:53:00;;;;;;;12.27;4.70;;;;;;;16.00;21.35;100939.44;5034615;28;20384;-55
2023/04/08 08:55:30;;;;;;;9.35;4.25;;;;;;;15.95;22.20;100939.00;5034282;28;20029;-55
2023/04/08 08:57:56;;;;;;;13.48;4.93;;;;;;;16.05;22.29;100939.91;5035747;28;20315;-53
2023/04/08 09:00:35;;;;;;;8.88;4.45;;;;;;;16.19;21.14;100942.28;5035186;28;20429;-57
2023/04/08 09:03:20;;;;;;;8.80;4.75;;;;;;;16.14;21.29;100952.59;5034986;28;20045;-58
2023/04/08 09:05:49;;;;;;;9.65;4.55;;;;;;;15.99;21.65;100943.97;5024835;28;20372;-54
2023/04/08 09:08:32;;;;;;;16.70;4.57;;;;;;;15.96;21.21;100943.41;5014831;28;20113;-51
2023/04/08 09:11:14;;;;;;;7.90;4.40;;;;;;;15.77;21.19;100944.94;5020511;28;20025;-52
2023/04/08 09:13:40;;;;;;;6.22;3.92;;;;;;;15.46;21.44;100937.59;5031436;28;20082;-55
2023/04/08 09:16:08;;;;;;;10.40;4.05;;;;;;;15.41;21.94;100938.94;5035129;28;20056;-55
2023/04/08 09:18:35;;;;;;;5.78;4.05;;;;;;;15.25;21.72;100932.16;5035183;28;20065;-57
2023/04/08 09:21:02;;;;;;;5.07;4.00;;;;;;;15.10;22.24;100936.09;5034626;28;20048;-54
2023/04/08 09:23:36;;;;;;;8.50;4.10;;;;;;;15.19;22.29;100938.03;5034606;28;20120;-61
2023/04/08 09:26:14;;;;;;;9.82;4.75;;;;;;;15.25;21.88;100928.56;5034676;28;20025;-56
2023/04/08 09:28:41;;;;;;;8.52;4.93;;;;;;;15.15;22.46;100952.75;5016564;28;20088;-54
2023/04/08 09:31:21;;;;;;;10.88;5.45;;;;;;;15.14;22.23;100940.25;5014701;28;20033;-57
2023/04/08 09:33:49;;;;;;;10.27;5.10;;;;;;;14.71;23.34;100937.41;5023717;28;20041;-56
2023/04/08 09:36:15;;;;;;;12.32;5.80;;;;;;;14.37;23.79;100958.06;5034195;28;20408;-60
2023/04/08 09:38:45;;;;;;;17.08;6.20;;;;;;;14.37;23.96;100942.72;5034062;28;20029;-55
2023/04/08 09:41:16;;;;;;;10.35;5.68;;;;;;;14.11;24.20;100952.88;5034152;28;20057;-56
2023/04/08 09:43:54;;;;;;;16.30;6.65;;;;;;;14.12;24.02;100941.97;5034168;28;20029;-54
2023/04/08 09:46:53;;;;;;;12.95;6.60;;;;;;;14.36;23.65;100938.31;5034030;28;20036;-53
2023/04/08 09:49:24;;;;;;;12.27;6.30;;;;;;;14.31;24.07;100940.53;5033312;28;20105;-57
2023/04/08 09:52:14;;;;;;;14.57;6.28;;;;;;;14.38;23.70;100938.22;5033883;28;20412;-57
2023/04/08 09:54:54;;;;;;;13.13;6.70;;;;;;;14.58;23.93;100929.38;5033786;28;20073;-59
2023/04/08 09:57:38;;;;;;;11.02;6.68;;;;;;;14.69;23.75;100925.81;5033489;28;20045;-56
2023/04/08 10:00:09;;;;;;;11.00;6.32;;;;;;;14.69;24.06;100914.19;5033984;28;20112;-55
2023/04/08 10:02:44;;;;;;;12.30;6.85;;;;;;;14.75;23.93;100922.69;5015786;28;20030;-53
2023/04/08 10:05:13;;;;;;;12.52;6.55;;;;;;;14.43;24.32;100920.69;5013840;28;20033;-62
2023/04/08 10:07:38;;;;;;;11.43;5.95;;;;;;;14.45;24.02;100932.19;5013584;28;20108;-54
2023/04/08 10:10:06;;;;;;;15.90;6.00;;;;;;;14.45;23.81;100928.66;5014022;28;20042;-54
2023/04/08 10:12:32;;;;;;;13.25;6.38;;;;;;;14.27;24.16;100912.13;5013933;28;20064;-53
2023/04/08 10:15:32;;;;;;;16.42;6.25;;;;;;;14.41;23.76;100919.94;5014142;28;20026;-57
2023/04/08 10:18:06;;;;;;;11.23;5.85;;;;;;;14.36;24.08;100916.78;5013557;28;20038;-57
2023/04/08 10:20:35;;;;;;;13.85;6.30;;;;;;;14.33;24.31;100903.56;5014363;28;20076;-57
2023/04/08 10:23:02;;;;;;;13.23;6.15;;;;;;;14.38;24.21;100898.66;5033410;28;20840;-54
2023/04/08 10:25:29;;;;;;;18.35;6.78;;;;;;;14.44;24.59;100900.00;5033662;28;20419;-54
2023/04/08 10:27:54;;;;;;;14.48;6.13;;;;;;;14.54;24.46;100909.06;5032989;28;20099;-56
2023/04/08 10:30:32;;;;;;;15.07;5.97;;;;;;;14.71;23.42;100888.00;5032910;28;20029;-56
2023/04/08 10:33:00;;;;;;;9.27;5.90;;;;;;;14.72;23.63;100897.81;5033426;28;20445;-55
2023/04/08 10:35:36;;;;;;;16.40;6.25;;;;;;;14.87;23.59;100896.56;5032482;28;20411;-57
2023/04/08 10:38:02;;;;;;;14.00;5.57;;;;;;;14.86;22.67;100899.38;5032950;28;20089;-57
2023/04/08 10:40:28;;;;;;;11.43;5.28;;;;;;;14.76;22.83;100881.25;5031836;28;20532;-54
2023/04/08 10:42:57;;;;;;;12.15;5.80;;;;;;;14.87;22.79;100898.38;5013717;28;20038;-58
2023/04/08 10:45:23;;;;;;;10.77;6.00;;;;;;;14.75;22.84;100893.03;5012430;28;20349;-55
2023/04/08 10:47:49;;;;;;;15.00;6.22;;;;;;;14.65;23.46;100886.63;5013162;28;20028;-55
2023/04/08 10:50:16;;;;;;;14.02;6.28;;;;;;;14.65;23.19;100886.63;5012860;28;20037;-58
2023/04/08 10:52:53;;;;;;;15.05;7.15;;;;;;;14.73;23.38;100897.69;5013405;28;20038;-58
2023/04/08 10:55:25;;;;;;;9.55;5.97;;;;;;;14.60;23.48;100903.19;5012992;28;20033;-53
2023/04/08 10:57:52;;;;;;;21.55;6.88;;;;;;;14.44;23.93;100890.06;5012985;28;20117;-54
2023/04/08 11:00:19;;;;;;;10.63;6.50;;;;;;;14.42;23.53;100891.19;5012835;28;20062;-53
2023/04/08 11:02:44;;;;;;;15.02;6.85;;;;;;;14.16;24.06;100886.03;5013351;28;20095;-60
2023/04/08 11:05:10;;;;;;;15.02;6.68;;;;;;;13.97;24.70;100886.59;5014252;28;20033;-58
2023/04/08 11:07:42;;;;;;;16.73;6.88;;;;;;;13.97;24.73;100871.31;5012880;28;20148;-58
2023/04/08 11:10:08;;;;;;;11.23;6.88;;;;;;;14.06;25.00;100880.53;5012701;28;20064;-55
2023/04/08 11:12:36;;;;;;;15.30;6.47;;;;;;;14.02;24.93;100870.97;5013056;28;20829;-58
2023/04/08 11:15:03;;;;;;;14.55;6.72;;;;;;;14.23;24.18;100867.53;5012964;28;20079;-59
2023/04/08 11:17:32;;;;;;;14.70;6.30;;;;;;;14.28;24.42;100863.50;5012891;28;20079;-58
2023/04/08 11:20:01;;;;;;;13.88;6.20;;;;;;;14.37;24.14;100871.84;5031268;28;20025;-58
2023/04/08 11:22:27;;;;;;;12.98;6.38;;;;;;;14.48;24.39;100861.91;5032809;28;20029;-58
2023/04/08 11:24:55;;;;;;;13.50;6.47;;;;;;;14.51;24.28;100850.00;5032565;28;20582;-56